sensor_id;sensor_type;location;lat;lon;timestamp;P1;durP1;ratioP1;P2;durP2;ratioP2
50649;SDS011;36621;60.058;30.346;2023-11-21T00:03:02;34.15;;;19.55;;
50649;SDS011;36621;60.058;30.346;2023-11-21T00:10:35;42.40;;;19.30;;
50649;SDS011;36621;60.058;30.346;2023-11-21T00:18:09;56.72;;;21.50;;
50649;SDS011;36621;60.058;30.346;2023-11-21T00:25:41;54.75;;;20.42;;
50649;SDS011;36621;60.058;30.346;2023-11-21T00:33:15;45.28;;;21.05;;
50649;SDS011;36621;60.058;30.346;2023-11-21T00:40:48;47.42;;;21.08;;
50649;SDS011;36621;60.058;30.346;2023-11-21T00:48:20;53.45;;;20.80;;
50649;SDS011;36621;60.058;30.346;2023-11-21T00:55:53;49.28;;;20.55;;
50649;SDS011;36621;60.058;30.346;2023-11-21T01:03:29;34.20;;;18.35;;
50649;SDS011;36621;60.058;30.346;2023-11-21T01:11:02;36.63;;;20.58;;
50649;SDS011;36621;60.058;30.346;2023-11-21T01:18:35;36.38;;;20.77;;
50649;SDS011;36621;60.058;30.346;2023-11-21T01:26:07;35.50;;;18.00;;
50649;SDS011;36621;60.058;30.346;2023-11-21T01:33:42;33.33;;;18.15;;
50649;SDS011;36621;60.058;30.346;2023-11-21T01:41:14;32.00;;;17.20;;
50649;SDS011;36621;60.058;30.346;2023-11-21T01:48:47;28.70;;;15.80;;
50649;SDS011;36621;60.058;30.346;2023-11-21T01:56:20;23.63;;;14.07;;
50649;SDS011;36621;60.058;30.346;2023-11-21T02:03:53;23.85;;;14.00;;
50649;SDS011;36621;60.058;30.346;2023-11-21T02:11:26;23.92;;;12.82;;
50649;SDS011;36621;60.058;30.346;2023-11-21T02:18:59;21.25;;;13.30;;
50649;SDS011;36621;60.058;30.346;2023-11-21T02:26:33;24.08;;;13.30;;
50649;SDS011;36621;60.058;30.346;2023-11-21T02:34:06;23.35;;;13.32;;
50649;SDS011;36621;60.058;30.346;2023-11-21T02:41:39;21.00;;;12.85;;
50649;SDS011;36621;60.058;30.346;2023-11-21T02:49:11;25.08;;;12.57;;
50649;SDS011;36621;60.058;30.346;2023-11-21T02:56:44;38.35;;;14.98;;
50649;SDS011;36621;60.058;30.346;2023-11-21T03:04:17;30.17;;;13.65;;
50649;SDS011;36621;60.058;30.346;2023-11-21T03:11:50;20.40;;;12.60;;
50649;SDS011;36621;60.058;30.346;2023-11-21T03:19:22;22.83;;;13.60;;
50649;SDS011;36621;60.058;30.346;2023-11-21T03:26:55;23.83;;;12.43;;
50649;SDS011;36621;60.058;30.346;2023-11-21T03:34:28;20.00;;;11.52;;
50649;SDS011;36621;60.058;30.346;2023-11-21T03:42:02;19.73;;;11.85;;
50649;SDS011;36621;60.058;30.346;2023-11-21T03:49:35;19.85;;;12.38;;
50649;SDS011;36621;60.058;30.346;2023-11-21T03:57:08;22.40;;;12.38;;
50649;SDS011;36621;60.058;30.346;2023-11-21T04:04:41;22.08;;;13.25;;
50649;SDS011;36621;60.058;30.346;2023-11-21T04:12:14;23.30;;;13.82;;
50649;SDS011;36621;60.058;30.346;2023-11-21T04:19:46;23.70;;;12.43;;
50649;SDS011;36621;60.058;30.346;2023-11-21T04:27:19;23.13;;;13.23;;
50649;SDS011;36621;60.058;30.346;2023-11-21T04:34:51;21.13;;;12.32;;
50649;SDS011;36621;60.058;30.346;2023-11-21T04:42:24;22.83;;;13.50;;
50649;SDS011;36621;60.058;30.346;2023-11-21T04:49:56;18.40;;;11.50;;
50649;SDS011;36621;60.058;30.346;2023-11-21T04:57:29;15.82;;;9.80;;
50649;SDS011;36621;60.058;30.346;2023-11-21T05:05:01;13.55;;;9.23;;
50649;SDS011;36621;60.058;30.346;2023-11-21T05:12:37;16.83;;;9.43;;
50649;SDS011;36621;60.058;30.346;2023-11-21T05:20:10;22.52;;;9.70;;
50649;SDS011;36621;60.058;30.346;2023-11-21T05:27:45;18.63;;;10.43;;
50649;SDS011;36621;60.058;30.346;2023-11-21T05:35:17;23.00;;;11.52;;
50649;SDS011;36621;60.058;30.346;2023-11-21T05:42:50;20.52;;;10.50;;
50649;SDS011;36621;60.058;30.346;2023-11-21T05:50:23;21.50;;;10.98;;
50649;SDS011;36621;60.058;30.346;2023-11-21T05:57:56;20.60;;;10.88;;
50649;SDS011;36621;60.058;30.346;2023-11-21T06:05:28;23.83;;;11.77;;
50649;SDS011;36621;60.058;30.346;2023-11-21T06:13:04;63.08;;;17.27;;
50649;SDS011;36621;60.058;30.346;2023-11-21T06:20:38;54.08;;;19.50;;
50649;SDS011;36621;60.058;30.346;2023-11-21T06:28:11;22.40;;;11.10;;
50649;SDS011;36621;60.058;30.346;2023-11-21T06:35:43;19.67;;;9.23;;
50649;SDS011;36621;60.058;30.346;2023-11-21T06:43:16;19.40;;;10.07;;
50649;SDS011;36621;60.058;30.346;2023-11-21T06:50:49;20.50;;;8.88;;
50649;SDS011;36621;60.058;30.346;2023-11-21T06:58:23;16.48;;;7.78;;
50649;SDS011;36621;60.058;30.346;2023-11-21T07:05:56;16.27;;;9.20;;
50649;SDS011;36621;60.058;30.346;2023-11-21T07:13:28;17.40;;;9.20;;
50649;SDS011;36621;60.058;30.346;2023-11-21T07:21:01;17.30;;;9.27;;
50649;SDS011;36621;60.058;30.346;2023-11-21T07:28:34;14.55;;;7.78;;
50649;SDS011;36621;60.058;30.346;2023-11-21T07:36:07;13.82;;;6.75;;
50649;SDS011;36621;60.058;30.346;2023-11-21T07:43:42;12.45;;;6.15;;
50649;SDS011;36621;60.058;30.346;2023-11-21T07:51:14;12.60;;;7.30;;
50649;SDS011;36621;60.058;30.346;2023-11-21T07:58:47;11.07;;;6.57;;
50649;SDS011;36621;60.058;30.346;2023-11-21T08:06:21;12.77;;;6.93;;
50649;SDS011;36621;60.058;30.346;2023-11-21T08:13:54;12.82;;;7.18;;
50649;SDS011;36621;60.058;30.346;2023-11-21T08:21:26;10.57;;;5.75;;
50649;SDS011;36621;60.058;30.346;2023-11-21T08:29:00;11.90;;;5.95;;
50649;SDS011;36621;60.058;30.346;2023-11-21T08:36:33;10.75;;;5.97;;
50649;SDS011;36621;60.058;30.346;2023-11-21T08:44:06;8.80;;;5.38;;
50649;SDS011;36621;60.058;30.346;2023-11-21T08:51:38;13.20;;;6.20;;
50649;SDS011;36621;60.058;30.346;2023-11-21T08:59:11;18.73;;;9.13;;
50649;SDS011;36621;60.058;30.346;2023-11-21T09:06:48;17.45;;;9.75;;
50649;SDS011;36621;60.058;30.346;2023-11-21T09:14:21;18.25;;;8.88;;
50649;SDS011;36621;60.058;30.346;2023-11-21T09:21:55;23.90;;;10.63;;
50649;SDS011;36621;60.058;30.346;2023-11-21T09:29:29;21.83;;;11.68;;
50649;SDS011;36621;60.058;30.346;2023-11-21T09:37:10;12.45;;;6.10;;
50649;SDS011;36621;60.058;30.346;2023-11-21T09:44:45;10.23;;;6.40;;
50649;SDS011;36621;60.058;30.346;2023-11-21T09:52:37;15.25;;;7.65;;
50649;SDS011;36621;60.058;30.346;2023-11-21T10:00:17;11.30;;;6.15;;
50649;SDS011;36621;60.058;30.346;2023-11-21T10:08:01;10.55;;;6.65;;
50649;SDS011;36621;60.058;30.346;2023-11-21T10:15:35;14.80;;;7.97;;
50649;SDS011;36621;60.058;30.346;2023-11-21T10:23:08;14.93;;;8.95;;
50649;SDS011;36621;60.058;30.346;2023-11-21T10:30:43;19.05;;;9.55;;
50649;SDS011;36621;60.058;30.346;2023-11-21T10:38:16;15.63;;;9.80;;
50649;SDS011;36621;60.058;30.346;2023-11-21T10:45:49;17.48;;;8.60;;
50649;SDS011;36621;60.058;30.346;2023-11-21T10:53:22;13.43;;;8.38;;
50649;SDS011;36621;60.058;30.346;2023-11-21T11:00:55;12.18;;;7.03;;
50649;SDS011;36621;60.058;30.346;2023-11-21T11:08:28;10.93;;;6.07;;
50649;SDS011;36621;60.058;30.346;2023-11-21T11:16:02;12.43;;;7.50;;
50649;SDS011;36621;60.058;30.346;2023-11-21T11:23:46;11.10;;;5.50;;
50649;SDS011;36621;60.058;30.346;2023-11-21T11:31:33;12.90;;;6.22;;
50649;SDS011;36621;60.058;30.346;2023-11-21T11:47:00;8.80;;;4.43;;
50649;SDS011;36621;60.058;30.346;2023-11-21T11:54:34;10.02;;;4.78;;
50649;SDS011;36621;60.058;30.346;2023-11-21T12:02:09;9.40;;;4.47;;
50649;SDS011;36621;60.058;30.346;2023-11-21T12:09:42;8.25;;;4.30;;
50649;SDS011;36621;60.058;30.346;2023-11-21T12:17:15;10.40;;;4.55;;
50649;SDS011;36621;60.058;30.346;2023-11-21T12:24:48;13.82;;;7.65;;
50649;SDS011;36621;60.058;30.346;2023-11-21T12:32:21;11.32;;;5.75;;
50649;SDS011;36621;60.058;30.346;2023-11-21T12:39:53;12.93;;;5.78;;
50649;SDS011;36621;60.058;30.346;2023-11-21T12:47:29;18.15;;;5.60;;
50649;SDS011;36621;60.058;30.346;2023-11-21T12:55:02;13.32;;;6.95;;
50649;SDS011;36621;60.058;30.346;2023-11-21T13:02:37;12.05;;;6.97;;
50649;SDS011;36621;60.058;30.346;2023-11-21T13:10:09;8.73;;;4.63;;
50649;SDS011;36621;60.058;30.346;2023-11-21T13:17:43;8.45;;;4.50;;
50649;SDS011;36621;60.058;30.346;2023-11-21T13:25:16;7.20;;;3.90;;
50649;SDS011;36621;60.058;30.346;2023-11-21T13:32:50;9.23;;;4.75;;
50649;SDS011;36621;60.058;30.346;2023-11-21T13:40:23;9.82;;;4.40;;
50649;SDS011;36621;60.058;30.346;2023-11-21T13:47:58;8.38;;;3.35;;
50649;SDS011;36621;60.058;30.346;2023-11-21T13:55:31;6.80;;;3.30;;
50649;SDS011;36621;60.058;30.346;2023-11-21T14:03:04;9.05;;;3.83;;
50649;SDS011;36621;60.058;30.346;2023-11-21T14:10:41;4.13;;;2.70;;
50649;SDS011;36621;60.058;30.346;2023-11-21T14:18:15;6.68;;;3.40;;
50649;SDS011;36621;60.058;30.346;2023-11-21T14:25:50;8.52;;;3.28;;
50649;SDS011;36621;60.058;30.346;2023-11-21T14:33:23;6.07;;;3.47;;
50649;SDS011;36621;60.058;30.346;2023-11-21T14:40:56;8.90;;;4.43;;
50649;SDS011;36621;60.058;30.346;2023-11-21T14:48:29;6.57;;;3.30;;
50649;SDS011;36621;60.058;30.346;2023-11-21T14:56:13;6.68;;;3.60;;
50649;SDS011;36621;60.058;30.346;2023-11-21T15:03:54;8.82;;;5.10;;
50649;SDS011;36621;60.058;30.346;2023-11-21T15:11:26;8.85;;;3.10;;
50649;SDS011;36621;60.058;30.346;2023-11-21T15:19:02;6.03;;;3.45;;
50649;SDS011;36621;60.058;30.346;2023-11-21T15:26:34;4.82;;;2.53;;
50649;SDS011;36621;60.058;30.346;2023-11-21T15:34:07;9.32;;;4.97;;
50649;SDS011;36621;60.058;30.346;2023-11-21T15:41:39;16.48;;;6.78;;
50649;SDS011;36621;60.058;30.346;2023-11-21T15:49:13;13.23;;;7.38;;
50649;SDS011;36621;60.058;30.346;2023-11-21T15:56:48;18.95;;;8.27;;
50649;SDS011;36621;60.058;30.346;2023-11-21T16:04:21;18.02;;;7.13;;
50649;SDS011;36621;60.058;30.346;2023-11-21T16:11:54;8.85;;;4.82;;
50649;SDS011;36621;60.058;30.346;2023-11-21T16:19:32;10.07;;;4.93;;
50649;SDS011;36621;60.058;30.346;2023-11-21T16:27:04;6.95;;;3.92;;
50649;SDS011;36621;60.058;30.346;2023-11-21T16:34:41;6.70;;;3.20;;
50649;SDS011;36621;60.058;30.346;2023-11-21T16:42:17;3.80;;;2.42;;
50649;SDS011;36621;60.058;30.346;2023-11-21T16:49:50;4.53;;;2.33;;
50649;SDS011;36621;60.058;30.346;2023-11-21T16:57:22;4.30;;;1.90;;
50649;SDS011;36621;60.058;30.346;2023-11-21T17:04:55;3.92;;;2.20;;
50649;SDS011;36621;60.058;30.346;2023-11-21T17:12:28;7.65;;;3.55;;
50649;SDS011;36621;60.058;30.346;2023-11-21T17:20:01;4.05;;;2.05;;
50649;SDS011;36621;60.058;30.346;2023-11-21T17:27:39;17.23;;;8.27;;
50649;SDS011;36621;60.058;30.346;2023-11-21T17:35:13;9.32;;;4.53;;
50649;SDS011;36621;60.058;30.346;2023-11-21T17:42:46;6.22;;;3.60;;
50649;SDS011;36621;60.058;30.346;2023-11-21T17:50:19;4.38;;;2.58;;
50649;SDS011;36621;60.058;30.346;2023-11-21T17:57:51;16.60;;;7.40;;
50649;SDS011;36621;60.058;30.346;2023-11-21T18:05:24;9.20;;;5.57;;
50649;SDS011;36621;60.058;30.346;2023-11-21T18:12:57;13.73;;;6.50;;
50649;SDS011;36621;60.058;30.346;2023-11-21T18:20:30;6.18;;;3.80;;
50649;SDS011;36621;60.058;30.346;2023-11-21T18:28:02;10.90;;;5.90;;
50649;SDS011;36621;60.058;30.346;2023-11-21T18:35:35;7.63;;;3.78;;
50649;SDS011;36621;60.058;30.346;2023-11-21T18:43:08;6.85;;;4.55;;
50649;SDS011;36621;60.058;30.346;2023-11-21T18:50:41;8.32;;;4.57;;
50649;SDS011;36621;60.058;30.346;2023-11-21T18:58:16;7.65;;;3.80;;
50649;SDS011;36621;60.058;30.346;2023-11-21T19:05:51;18.67;;;4.47;;
50649;SDS011;36621;60.058;30.346;2023-11-21T19:13:23;12.13;;;4.47;;
50649;SDS011;36621;60.058;30.346;2023-11-21T19:20:56;12.77;;;3.95;;
50649;SDS011;36621;60.058;30.346;2023-11-21T19:28:29;12.90;;;4.20;;
50649;SDS011;36621;60.058;30.346;2023-11-21T19:36:02;6.72;;;3.53;;
50649;SDS011;36621;60.058;30.346;2023-11-21T19:43:35;8.10;;;3.40;;
50649;SDS011;36621;60.058;30.346;2023-11-21T19:51:08;8.45;;;3.80;;
50649;SDS011;36621;60.058;30.346;2023-11-21T19:58:42;4.72;;;2.92;;
50649;SDS011;36621;60.058;30.346;2023-11-21T20:06:15;6.35;;;3.65;;
50649;SDS011;36621;60.058;30.346;2023-11-21T20:13:50;7.95;;;4.22;;
50649;SDS011;36621;60.058;30.346;2023-11-21T20:21:24;5.72;;;3.70;;
50649;SDS011;36621;60.058;30.346;2023-11-21T20:28:56;8.00;;;4.57;;
50649;SDS011;36621;60.058;30.346;2023-11-21T20:36:29;6.93;;;5.07;;
50649;SDS011;36621;60.058;30.346;2023-11-21T20:44:01;7.95;;;4.75;;
50649;SDS011;36621;60.058;30.346;2023-11-21T20:51:34;8.95;;;4.70;;
50649;SDS011;36621;60.058;30.346;2023-11-21T20:59:06;7.25;;;4.45;;
50649;SDS011;36621;60.058;30.346;2023-11-21T21:06:39;9.95;;;4.15;;
50649;SDS011;36621;60.058;30.346;2023-11-21T21:14:11;7.65;;;4.70;;
50649;SDS011;36621;60.058;30.346;2023-11-21T21:21:45;12.23;;;5.07;;
50649;SDS011;36621;60.058;30.346;2023-11-21T21:29:17;6.43;;;4.07;;
50649;SDS011;36621;60.058;30.346;2023-11-21T21:36:52;8.15;;;3.70;;
50649;SDS011;36621;60.058;30.346;2023-11-21T21:44:24;5.68;;;3.92;;
50649;SDS011;36621;60.058;30.346;2023-11-21T21:51:58;14.75;;;6.13;;
50649;SDS011;36621;60.058;30.346;2023-11-21T21:59:30;8.98;;;4.93;;
50649;SDS011;36621;60.058;30.346;2023-11-21T22:07:03;11.32;;;5.30;;
50649;SDS011;36621;60.058;30.346;2023-11-21T22:14:35;13.50;;;5.75;;
50649;SDS011;36621;60.058;30.346;2023-11-21T22:22:08;9.48;;;6.13;;
50649;SDS011;36621;60.058;30.346;2023-11-21T22:29:41;7.68;;;4.65;;
50649;SDS011;36621;60.058;30.346;2023-11-21T22:37:14;5.65;;;4.32;;
50649;SDS011;36621;60.058;30.346;2023-11-21T22:44:46;9.57;;;5.70;;
50649;SDS011;36621;60.058;30.346;2023-11-21T22:52:19;9.73;;;6.00;;
50649;SDS011;36621;60.058;30.346;2023-11-21T22:59:51;5.80;;;4.30;;
50649;SDS011;36621;60.058;30.346;2023-11-21T23:07:24;4.78;;;3.35;;
50649;SDS011;36621;60.058;30.346;2023-11-21T23:14:56;8.07;;;4.95;;
50649;SDS011;36621;60.058;30.346;2023-11-21T23:22:29;9.13;;;4.88;;
50649;SDS011;36621;60.058;30.346;2023-11-21T23:30:04;14.35;;;6.47;;
50649;SDS011;36621;60.058;30.346;2023-11-21T23:37:39;17.02;;;6.95;;
50649;SDS011;36621;60.058;30.346;2023-11-21T23:45:12;13.10;;;6.32;;
50649;SDS011;36621;60.058;30.346;2023-11-21T23:52:45;12.82;;;6.40;;
